Time;durP1;ratioP1;P1;durP2;ratioP2;P2;SDS_P1;SDS_P2;PMS_P1;PMS_P2;Temp;Humidity;BMP_temperature;BMP_pressure;BME280_temperature;BME280_humidity;BME280_pressure;Samples;Min_cycle;Max_cycle;Signal;HPM_P1;HPM_P2
2023/08/07 00:01:19;;;;;;;;;;;16.50;99.90;;;;;;5094067;28;19908;-69
2023/08/07 00:03:47;;;;;;;;;;;16.60;99.90;;;;;;5112509;28;20497;-70
2023/08/07 00:06:14;;;;;;;;;;;16.60;99.90;;;;;;5112465;28;20464;-67
2023/08/07 00:08:40;;;;;;;;;;;16.80;99.90;;;;;;5079103;28;19908;-71
2023/08/07 00:11:08;;;;;;;;;;;16.90;99.90;;;;;;5104927;28;19912;-72
2023/08/07 00:13:34;;;;;;;;;;;17.00;99.90;;;;;;5107250;28;19956;-69
2023/08/07 00:16:01;;;;;;;;;;;16.90;99.90;;;;;;5092729;28;19908;-72
2023/08/07 00:18:28;;;;;;;;;;;17.00;99.90;;;;;;5108267;28;19915;-72
2023/08/07 00:20:55;;;;;;;;;;;16.90;99.90;;;;;;5112053;28;20395;-68
2023/08/07 00:23:22;;;;;;;;;;;16.90;99.90;;;;;;5112351;28;19912;-69
2023/08/07 00:25:48;;;;;;;;;;;16.90;99.90;;;;;;5094009;28;19927;-70
2023/08/07 00:28:15;;;;;;;;;;;16.90;99.90;;;;;;5103644;28;20273;-71
2023/08/07 00:30:42;;;;;;;;;;;17.00;99.90;;;;;;5112691;28;19908;-70
2023/08/07 00:33:08;;;;;;;;;;;17.10;99.90;;;;;;5103149;28;20387;-72
2023/08/07 00:35:35;;;;;;;;;;;17.10;99.90;;;;;;5092537;28;19951;-69
2023/08/07 00:38:01;;;;;;;;;;;17.10;99.90;;;;;;5102410;28;20359;-69
2023/08/07 00:40:28;;;;;;;;;;;17.20;99.90;;;;;;5111096;28;20391;-69
2023/08/07 00:42:55;;;;;;;;;;;17.20;99.90;;;;;;5112053;28;19908;-71
2023/08/07 00:45:21;;;;;;;;;;;17.20;99.90;;;;;;5106462;28;20273;-70
2023/08/07 00:47:48;;;;;;;;;;;17.20;99.90;;;;;;5100067;28;20041;-71
2023/08/07 00:50:15;;;;;;;;;;;17.40;99.90;;;;;;5111319;28;19908;-72
2023/08/07 00:52:41;;;;;;;;;;;17.50;99.90;;;;;;5104357;28;19916;-70
2023/08/07 00:55:08;;;;;;;;;;;17.40;99.90;;;;;;5092594;28;19912;-71
2023/08/07 00:57:35;;;;;;;;;;;17.60;99.90;;;;;;5099667;28;19908;-72
2023/08/07 01:00:02;;;;;;;;;;;17.70;99.90;;;;;;5102562;28;19974;-70
2023/08/07 01:02:29;;;;;;;;;;;17.80;99.90;;;;;;5111565;28;19962;-68
2023/08/07 01:04:55;;;;;;;;;;;17.70;99.90;;;;;;5111946;28;19912;-67
2023/08/07 01:07:22;;;;;;;;;;;17.70;99.90;;;;;;5112387;28;20000;-69
2023/08/07 01:09:49;;;;;;;;;;;17.80;99.90;;;;;;5110881;28;19912;-71
2023/08/07 01:12:25;;;;;;;;;;;17.90;99.90;;;;;;5110573;28;20002;-71
2023/08/07 01:15:06;;;;;;;;;;;17.90;99.90;;;;;;5110590;28;19907;-72
2023/08/07 01:17:34;;;;;;;;;;;17.80;99.90;;;;;;5091140;28;20574;-71
2023/08/07 01:20:02;;;;;;;;;;;17.70;99.90;;;;;;5090136;28;19912;-70
2023/08/07 01:22:28;;;;;;;;;;;17.60;99.90;;;;;;5089909;28;19919;-70
2023/08/07 01:24:55;;;;;;;;;;;17.60;99.90;;;;;;5090349;28;19961;-69
2023/08/07 01:27:27;;;;;;;;;;;17.50;99.90;;;;;;5089606;28;19922;-67
2023/08/07 01:30:08;;;;;;;;;;;17.60;99.90;;;;;;5098434;28;19912;-69
2023/08/07 01:32:35;;;;;;;;;;;17.50;99.90;;;;;;5111021;28;19908;-70
2023/08/07 01:35:05;;;;;;;;;;;17.40;99.90;;;;;;5101252;28;20380;-69
2023/08/07 01:37:34;;;;;;;;;;;17.60;99.90;;;;;;5091858;28;20010;-69
2023/08/07 01:40:03;;;;;;;;;;;17.60;99.90;;;;;;5090461;28;19959;-67
2023/08/07 01:42:32;;;;;;;;;;;17.70;99.90;;;;;;5096938;28;19923;-70
2023/08/07 01:44:58;;;;;;;;;;;17.70;99.90;;;;;;5107101;28;19919;-69
2023/08/07 01:47:25;;;;;;;;;;;17.50;99.90;;;;;;5108845;28;19916;-69
2023/08/07 01:49:52;;;;;;;;;;;17.50;99.90;;;;;;5110722;28;19930;-67
2023/08/07 01:52:19;;;;;;;;;;;17.50;99.90;;;;;;5111363;28;19913;-69
2023/08/07 01:54:45;;;;;;;;;;;17.40;99.90;;;;;;5104065;28;19912;-70
2023/08/07 01:57:12;;;;;;;;;;;17.20;99.90;;;;;;5106614;28;19919;-69
2023/08/07 01:59:39;;;;;;;;;;;17.20;99.90;;;;;;5111661;28;19950;-72
2023/08/07 02:02:05;;;;;;;;;;;17.20;99.90;;;;;;5115851;28;20365;-69
2023/08/07 02:04:32;;;;;;;;;;;17.20;99.90;;;;;;5114570;28;20508;-70
2023/08/07 02:06:58;;;;;;;;;;;17.20;99.90;;;;;;5104964;28;19920;-70
2023/08/07 02:09:25;;;;;;;;;;;17.30;99.90;;;;;;5115416;28;20388;-68
2023/08/07 02:11:52;;;;;;;;;;;17.30;99.90;;;;;;5115252;28;19908;-72
2023/08/07 02:14:18;;;;;;;;;;;17.40;99.90;;;;;;5095955;28;19998;-70
2023/08/07 02:16:45;;;;;;;;;;;17.30;99.90;;;;;;5115260;28;19908;-71
2023/08/07 02:19:12;;;;;;;;;;;17.30;99.90;;;;;;5101824;28;19908;-71
2023/08/07 02:21:38;;;;;;;;;;;17.30;99.90;;;;;;5115408;28;19908;-72
2023/08/07 02:24:05;;;;;;;;;;;17.30;99.90;;;;;;5112039;28;19912;-73
2023/08/07 02:26:32;;;;;;;;;;;17.40;99.90;;;;;;5095397;28;19916;-70
2023/08/07 02:28:58;;;;;;;;;;;17.40;99.90;;;;;;5078382;28;19919;-69
2023/08/07 02:31:25;;;;;;;;;;;17.50;99.90;;;;;;5103242;28;19919;-71
2023/08/07 02:33:51;;;;;;;;;;;17.60;99.90;;;;;;5091405;28;19912;-70
2023/08/07 02:36:18;;;;;;;;;;;17.60;99.90;;;;;;5115180;28;19908;-70
2023/08/07 02:38:45;;;;;;;;;;;17.40;99.90;;;;;;5100266;28;19908;-71
2023/08/07 02:41:11;;;;;;;;;;;17.50;99.90;;;;;;5115297;28;19952;-70
2023/08/07 02:43:38;;;;;;;;;;;17.70;99.90;;;;;;5114969;28;19915;-69
2023/08/07 02:46:04;;;;;;;;;;;17.80;99.90;;;;;;5115214;28;20013;-70
2023/08/07 02:48:31;;;;;;;;;;;17.80;99.90;;;;;;5114258;28;19995;-70
2023/08/07 02:50:58;;;;;;;;;;;18.10;99.90;;;;;;5115366;28;19999;-67
2023/08/07 02:53:24;;;;;;;;;;;18.40;99.90;;;;;;5100816;28;19919;-70
2023/08/07 02:55:51;;;;;;;;;;;18.80;99.90;;;;;;5094047;28;19912;-69
2023/08/07 02:58:17;;;;;;;;;;;19.20;99.90;;;;;;5095101;28;20418;-69
2023/08/07 03:00:44;;;;;;;;;;;19.60;99.90;;;;;;5094554;28;19916;-67
2023/08/07 03:03:11;;;;;;;;;;;19.80;99.90;;;;;;5094326;28;20371;-68
2023/08/07 03:05:37;;;;;;;;;;;19.90;99.90;;;;;;5089713;28;20364;-70
2023/08/07 03:08:04;;;;;;;;;;;20.10;99.90;;;;;;5105919;28;19923;-69
2023/08/07 03:10:30;;;;;;;;;;;20.30;99.90;;;;;;5093981;28;20677;-69
2023/08/07 03:12:57;;;;;;;;;;;20.20;99.90;;;;;;5086011;28;19919;-68
2023/08/07 03:15:24;;;;;;;;;;;20.10;99.90;;;;;;5114080;28;19952;-67
2023/08/07 03:17:50;;;;;;;;;;;20.00;99.90;;;;;;5114415;28;19912;-68
2023/08/07 03:20:17;;;;;;;;;;;20.10;99.90;;;;;;5108574;28;20323;-68
2023/08/07 03:22:44;;;;;;;;;;;20.00;99.90;;;;;;5094158;28;19912;-68
2023/08/07 03:25:10;;;;;;;;;;;19.90;99.90;;;;;;5093373;28;19915;-68
2023/08/07 03:27:37;;;;;;;;;;;19.90;99.90;;;;;;5093540;28;19916;-67
2023/08/07 03:30:04;;;;;;;;;;;19.90;99.90;;;;;;5106987;28;20065;-69
2023/08/07 03:32:31;;;;;;;;;;;19.90;99.90;;;;;;5113822;28;19939;-69
2023/08/07 03:34:57;;;;;;;;;;;20.00;99.90;;;;;;5107946;28;19912;-68
2023/08/07 03:37:25;;;;;;;;;;;20.00;99.80;;;;;;5096162;28;19942;-68
2023/08/07 03:39:52;;;;;;;;;;;20.20;99.80;;;;;;5093134;28;19915;-68
2023/08/07 03:42:18;;;;;;;;;;;20.40;99.70;;;;;;5093189;28;20111;-70
2023/08/07 03:44:45;;;;;;;;;;;20.40;99.60;;;;;;5093336;28;20007;-70
2023/08/07 03:47:12;;;;;;;;;;;20.50;99.50;;;;;;5099338;28;19916;-68
2023/08/07 03:49:38;;;;;;;;;;;20.40;99.70;;;;;;5113768;28;19998;-69
2023/08/07 03:52:05;;;;;;;;;;;20.30;99.00;;;;;;5114109;28;19908;-70
2023/08/07 03:54:32;;;;;;;;;;;20.10;99.50;;;;;;5113461;28;19912;-69
2023/08/07 03:56:58;;;;;;;;;;;20.10;99.40;;;;;;5111681;28;20384;-65
2023/08/07 03:59:25;;;;;;;;;;;19.90;99.40;;;;;;5109879;28;19987;-69
2023/08/07 04:01:52;;;;;;;;;;;19.80;99.90;;;;;;5113465;28;19908;-69
2023/08/07 04:04:18;;;;;;;;;;;19.60;99.90;;;;;;5113377;28;19995;-68
2023/08/07 04:06:45;;;;;;;;;;;19.40;99.90;;;;;;5112301;28;20015;-67
2023/08/07 04:09:11;;;;;;;;;;;19.20;99.90;;;;;;5112856;28;19914;-68
2023/08/07 04:11:38;;;;;;;;;;;18.90;99.90;;;;;;5113558;28;19907;-68
2023/08/07 04:14:05;;;;;;;;;;;18.80;99.90;;;;;;5112529;28;19912;-73
2023/08/07 04:16:31;;;;;;;;;;;18.80;99.90;;;;;;5112668;28;19911;-74
2023/08/07 04:18:58;;;;;;;;;;;18.70;99.90;;;;;;5112356;28;19918;-69
2023/08/07 04:21:25;;;;;;;;;;;18.60;99.90;;;;;;5112572;28;20372;-71
2023/08/07 04:23:51;;;;;;;;;;;18.50;99.90;;;;;;5111022;28;19908;-69
2023/08/07 04:26:18;;;;;;;;;;;18.60;99.90;;;;;;5100653;28;19955;-66
2023/08/07 04:28:44;;;;;;;;;;;19.00;99.90;;;;;;5111587;28;20382;-67
2023/08/07 04:31:12;;;;;;;;;;;19.20;99.90;;;;;;5112834;28;19912;-66
2023/08/07 04:33:39;;;;;;;;;;;19.40;99.90;;;;;;5111934;28;20004;-66
2023/08/07 04:36:06;;;;;;;;;;;19.30;99.90;;;;;;5112383;28;19908;-65
2023/08/07 04:38:33;;;;;;;;;;;19.50;99.90;;;;;;5111370;28;19907;-67
2023/08/07 04:40:59;;;;;;;;;;;19.70;99.90;;;;;;5107611;28;19908;-70
2023/08/07 04:43:27;;;;;;;;;;;19.90;99.90;;;;;;5112290;28;19930;-67
2023/08/07 04:45:54;;;;;;;;;;;19.80;99.90;;;;;;5108667;28;20017;-71
2023/08/07 04:48:22;;;;;;;;;;;20.20;99.90;;;;;;5109138;27;19920;-70
2023/08/07 04:50:49;;;;;;;;;;;20.50;99.90;;;;;;5116279;27;19955;-69
2023/08/07 04:53:16;;;;;;;;;;;20.50;99.90;;;;;;5111975;28;19953;-66
2023/08/07 04:55:43;;;;;;;;;;;20.60;99.90;;;;;;5112095;28;19907;-66
2023/08/07 04:58:09;;;;;;;;;;;20.60;99.90;;;;;;5108850;28;20522;-67
2023/08/07 05:00:36;;;;;;;;;;;20.60;99.90;;;;;;5111956;28;19908;-68
2023/08/07 05:03:04;;;;;;;;;;;20.40;99.90;;;;;;5112322;28;19915;-69
2023/08/07 05:05:30;;;;;;;;;;;20.30;99.90;;;;;;5112350;28;19911;-66
2023/08/07 05:07:58;;;;;;;;;;;20.10;99.90;;;;;;5111726;28;19912;-66
2023/08/07 05:10:25;;;;;;;;;;;19.90;99.90;;;;;;5111865;28;20014;-65
2023/08/07 05:13:00;;;;;;;;;;;19.80;99.90;;;;;;5112050;28;19976;-65
2023/08/07 05:15:28;;;;;;;;;;;19.50;99.90;;;;;;5112400;28;20257;-68
2023/08/07 05:17:55;;;;;;;;;;;19.20;99.90;;;;;;5111486;28;19915;-66
2023/08/07 05:20:21;;;;;;;;;;;18.80;99.90;;;;;;5111296;28;20352;-68
2023/08/07 05:22:48;;;;;;;;;;;18.50;99.90;;;;;;5109958;28;20291;-66
2023/08/07 05:25:15;;;;;;;;;;;18.10;99.90;;;;;;5111286;28;20446;-67
2023/08/07 05:27:45;;;;;;;;;;;17.90;99.90;;;;;;5104518;28;19917;-68
2023/08/07 05:30:12;;;;;;;;;;;17.90;99.90;;;;;;5107186;28;19914;-68
2023/08/07 05:32:39;;;;;;;;;;;17.90;99.90;;;;;;5112240;28;19929;-69
2023/08/07 05:35:06;;;;;;;;;;;17.90;99.90;;;;;;5112874;28;20391;-68
2023/08/07 05:37:34;;;;;;;;;;;17.80;99.90;;;;;;5110265;28;19908;-66
2023/08/07 05:40:00;;;;;;;;;;;17.60;99.90;;;;;;5094876;28;19912;-68
2023/08/07 05:42:27;;;;;;;;;;;17.50;99.90;;;;;;5109571;28;19946;-68
2023/08/07 05:44:54;;;;;;;;;;;17.40;99.90;;;;;;5113916;28;19926;-68
2023/08/07 05:47:20;;;;;;;;;;;17.30;99.90;;;;;;5114703;28;19923;-67
2023/08/07 05:49:47;;;;;;;;;;;17.20;99.90;;;;;;5114994;28;19919;-68
2023/08/07 05:52:15;;;;;;;;;;;17.20;99.90;;;;;;5114782;28;19908;-67
2023/08/07 05:54:42;;;;;;;;;;;17.00;99.90;;;;;;5114294;28;19960;-67
2023/08/07 05:57:08;;;;;;;;;;;17.00;99.90;;;;;;5112722;28;20416;-67
2023/08/07 05:59:35;;;;;;;;;;;17.00;99.90;;;;;;5101005;28;19912;-68
2023/08/07 06:02:03;;;;;;;;;;;16.90;99.90;;;;;;5111563;28;19958;-68
2023/08/07 06:04:29;;;;;;;;;;;16.90;99.90;;;;;;5095308;28;20006;-67
2023/08/07 06:06:56;;;;;;;;;;;16.90;99.90;;;;;;5114423;28;19951;-66
2023/08/07 06:09:22;;;;;;;;;;;16.80;99.90;;;;;;5111509;28;20698;-71
2023/08/07 06:11:49;;;;;;;;;;;16.70;99.90;;;;;;5110995;27;19912;-67
2023/08/07 06:14:16;;;;;;;;;;;16.50;99.90;;;;;;5111279;28;19908;-67
2023/08/07 06:16:42;;;;;;;;;;;16.40;99.90;;;;;;5114734;28;19915;-66
2023/08/07 06:19:09;;;;;;;;;;;16.30;99.90;;;;;;5115659;27;19912;-66
2023/08/07 06:21:36;;;;;;;;;;;16.20;99.90;;;;;;5114163;28;19908;-70
2023/08/07 06:24:02;;;;;;;;;;;16.20;99.90;;;;;;5114127;27;19912;-67
2023/08/07 06:26:29;;;;;;;;;;;16.20;99.90;;;;;;5114759;28;19959;-69
2023/08/07 06:28:56;;;;;;;;;;;16.10;99.90;;;;;;5108122;28;19916;-74
2023/08/07 06:31:22;;;;;;;;;;;16.00;99.90;;;;;;5111996;28;19948;-68
2023/08/07 06:33:50;;;;;;;;;;;16.10;99.90;;;;;;5113198;28;19908;-71
2023/08/07 06:36:16;;;;;;;;;;;16.00;99.90;;;;;;5113769;28;20562;-69
2023/08/07 06:38:43;;;;;;;;;;;16.00;99.90;;;;;;5113677;28;19908;-67
2023/08/07 06:41:10;;;;;;;;;;;15.90;99.90;;;;;;5112693;28;20406;-70
2023/08/07 06:43:36;;;;;;;;;;;15.90;99.90;;;;;;5113162;28;19916;-68
2023/08/07 06:46:03;;;;;;;;;;;15.90;99.90;;;;;;5113470;28;19915;-68
2023/08/07 06:48:30;;;;;;;;;;;15.80;99.90;;;;;;5111206;28;19919;-70
2023/08/07 06:50:56;;;;;;;;;;;15.70;99.90;;;;;;5114778;28;19912;-70
2023/08/07 06:53:23;;;;;;;;;;;15.70;99.90;;;;;;5113299;28;20372;-70
2023/08/07 06:55:50;;;;;;;;;;;15.60;99.90;;;;;;5111706;28;20360;-69
2023/08/07 06:58:16;;;;;;;;;;;15.60;99.90;;;;;;5093402;28;19939;-68
2023/08/07 07:00:43;;;;;;;;;;;15.50;99.90;;;;;;5112254;28;19908;-72
2023/08/07 07:03:10;;;;;;;;;;;15.40;99.90;;;;;;5097313;28;19918;-69
2023/08/07 07:05:36;;;;;;;;;;;15.40;99.90;;;;;;5107237;28;19915;-69
2023/08/07 07:08:03;;;;;;;;;;;15.30;99.90;;;;;;5111542;28;19912;-68
2023/08/07 07:10:30;;;;;;;;;;;15.20;99.90;;;;;;5094080;28;20446;-69
2023/08/07 07:12:56;;;;;;;;;;;15.10;99.90;;;;;;5108328;28;19960;-70
2023/08/07 07:15:23;;;;;;;;;;;15.10;99.90;;;;;;5114050;28;19916;-71
2023/08/07 07:17:49;;;;;;;;;;;15.00;99.90;;;;;;5111732;28;19912;-67
2023/08/07 07:20:16;;;;;;;;;;;15.00;99.90;;;;;;5110662;28;19998;-68
2023/08/07 07:22:43;;;;;;;;;;;14.90;99.90;;;;;;5099588;28;19916;-69
2023/08/07 07:25:10;;;;;;;;;;;14.90;99.90;;;;;;5110089;28;19958;-70
2023/08/07 07:27:36;;;;;;;;;;;14.80;99.90;;;;;;5111917;28;19995;-67
2023/08/07 07:30:03;;;;;;;;;;;14.80;99.90;;;;;;5114191;28;19907;-69
2023/08/07 07:32:30;;;;;;;;;;;14.80;99.90;;;;;;5103375;28;20339;-70
2023/08/07 07:34:57;;;;;;;;;;;14.70;99.90;;;;;;5102822;28;19919;-70
2023/08/07 07:37:23;;;;;;;;;;;14.60;99.90;;;;;;5108047;28;19951;-69
2023/08/07 07:39:50;;;;;;;;;;;14.60;99.90;;;;;;5106208;28;19947;-69
2023/08/07 07:42:17;;;;;;;;;;;14.60;99.90;;;;;;5110121;28;19948;-69
2023/08/07 07:44:43;;;;;;;;;;;14.50;99.90;;;;;;5092222;28;19920;-69
2023/08/07 07:47:10;;;;;;;;;;;14.50;99.90;;;;;;5111979;28;20501;-70
2023/08/07 07:49:37;;;;;;;;;;;14.50;99.90;;;;;;5112541;28;20399;-70
2023/08/07 07:52:04;;;;;;;;;;;14.40;99.90;;;;;;5112856;28;19915;-68
2023/08/07 07:54:30;;;;;;;;;;;14.30;99.90;;;;;;5109379;28;20011;-70
2023/08/07 07:56:57;;;;;;;;;;;14.30;99.90;;;;;;5113602;28;20002;-69
2023/08/07 07:59:24;;;;;;;;;;;14.30;99.90;;;;;;5110311;28;19919;-70
2023/08/07 08:01:51;;;;;;;;;;;14.10;99.90;;;;;;5113402;28;20365;-70
2023/08/07 08:04:19;;;;;;;;;;;14.10;99.90;;;;;;5113142;28;19916;-70
2023/08/07 08:06:48;;;;;;;;;;;14.10;99.90;;;;;;5112616;28;19927;-71
2023/08/07 08:09:15;;;;;;;;;;;14.00;99.90;;;;;;5110838;28;19912;-71
2023/08/07 08:11:41;;;;;;;;;;;13.90;99.90;;;;;;5110476;28;20416;-70
2023/08/07 08:14:08;;;;;;;;;;;13.90;99.90;;;;;;5113064;28;19915;-71
2023/08/07 08:16:35;;;;;;;;;;;13.90;99.90;;;;;;5113222;28;19915;-70
2023/08/07 08:19:02;;;;;;;;;;;13.90;99.90;;;;;;5113132;28;19908;-67
2023/08/07 08:21:30;;;;;;;;;;;13.90;99.90;;;;;;5113251;28;20265;-71
2023/08/07 08:23:57;;;;;;;;;;;13.80;99.90;;;;;;5113031;28;21268;-71
2023/08/07 08:26:23;;;;;;;;;;;13.70;99.90;;;;;;5113169;28;19916;-70
2023/08/07 08:28:50;;;;;;;;;;;13.70;99.90;;;;;;5113110;28;19922;-68
2023/08/07 08:31:17;;;;;;;;;;;13.60;99.90;;;;;;5112388;28;20415;-70
2023/08/07 08:33:43;;;;;;;;;;;13.60;99.90;;;;;;5110246;28;19907;-70
2023/08/07 08:36:10;;;;;;;;;;;13.70;99.90;;;;;;5111034;28;19958;-71
2023/08/07 08:38:36;;;;;;;;;;;13.60;99.90;;;;;;5107329;28;19964;-70
2023/08/07 08:41:03;;;;;;;;;;;13.60;99.90;;;;;;5109822;28;20372;-68
2023/08/07 08:43:35;;;;;;;;;;;13.60;99.90;;;;;;5113235;28;19958;-69
2023/08/07 08:46:01;;;;;;;;;;;13.50;99.90;;;;;;5113267;28;19961;-68
2023/08/07 08:48:31;;;;;;;;;;;13.60;99.90;;;;;;5112768;28;19954;-69
2023/08/07 08:51:03;;;;;;;;;;;13.60;99.90;;;;;;5110429;28;20283;-69
2023/08/07 08:53:30;;;;;;;;;;;13.60;99.90;;;;;;5108352;28;19995;-69
2023/08/07 08:55:57;;;;;;;;;;;13.50;99.90;;;;;;5110688;28;19908;-70
2023/08/07 08:58:23;;;;;;;;;;;13.50;99.90;;;;;;5104754;28;19915;-69
2023/08/07 09:00:50;;;;;;;;;;;13.40;99.90;;;;;;5111019;28;20006;-69
2023/08/07 09:03:18;;;;;;;;;;;13.40;99.90;;;;;;5111446;28;20292;-70
2023/08/07 09:05:46;;;;;;;;;;;13.40;99.90;;;;;;5104190;28;20352;-69
2023/08/07 09:08:13;;;;;;;;;;;13.40;99.90;;;;;;5112469;28;20006;-69
2023/08/07 09:10:40;;;;;;;;;;;13.40;99.90;;;;;;5111647;28;19908;-71
2023/08/07 09:13:09;;;;;;;;;;;13.50;99.90;;;;;;5112171;28;20348;-70
2023/08/07 09:15:41;;;;;;;;;;;13.40;99.90;;;;;;5110021;28;19912;-70
2023/08/07 09:18:09;;;;;;;;;;;13.40;99.90;;;;;;5107767;28;19916;-69
2023/08/07 09:20:42;;;;;;;;;;;13.40;99.90;;;;;;5094113;28;19960;-70
2023/08/07 09:23:08;;;;;;;;;;;13.40;99.90;;;;;;5109845;28;20065;-70
2023/08/07 09:25:35;;;;;;;;;;;13.40;99.90;;;;;;5112268;28;20438;-68
2023/08/07 09:28:06;;;;;;;;;;;13.40;99.90;;;;;;5112235;28;19915;-69
2023/08/07 09:30:36;;;;;;;;;;;13.50;99.90;;;;;;5110383;28;20405;-69
2023/08/07 09:33:03;;;;;;;;;;;13.40;99.90;;;;;;5112205;28;19935;-68
2023/08/07 09:35:34;;;;;;;;;;;13.40;99.90;;;;;;5109049;28;19919;-68
2023/08/07 09:38:01;;;;;;;;;;;13.40;99.90;;;;;;5112767;28;19908;-69
2023/08/07 09:40:29;;;;;;;;;;;13.50;99.90;;;;;;5111427;28;19919;-70
2023/08/07 09:42:56;;;;;;;;;;;13.40;99.90;;;;;;5107516;28;19912;-70
2023/08/07 09:45:24;;;;;;;;;;;13.50;99.90;;;;;;5109443;28;19924;-71
2023/08/07 09:48:11;;;;;;;;;;;13.40;99.90;;;;;;5111896;28;20003;-72
2023/08/07 09:50:37;;;;;;;;;;;13.50;99.90;;;;;;5112300;28;19991;-71
2023/08/07 09:53:04;;;;;;;;;;;13.50;99.90;;;;;;5112690;28;19907;-70
2023/08/07 09:55:31;;;;;;;;;;;13.50;99.90;;;;;;5112538;28;19907;-70
2023/08/07 09:58:00;;;;;;;;;;;13.50;99.90;;;;;;5111629;28;19911;-69
2023/08/07 10:00:27;;;;;;;;;;;13.50;99.90;;;;;;5110735;28;19915;-71
2023/08/07 10:02:54;;;;;;;;;;;13.60;99.90;;;;;;5110700;28;19951;-71
2023/08/07 10:05:21;;;;;;;;;;;13.50;99.90;;;;;;5111206;28;19915;-69
2023/08/07 10:07:48;;;;;;;;;;;13.50;99.90;;;;;;5112295;28;20019;-67
2023/08/07 10:10:15;;;;;;;;;;;13.60;99.90;;;;;;5108819;28;19908;-69
2023/08/07 10:12:45;;;;;;;;;;;13.60;99.90;;;;;;5091832;28;19990;-69
2023/08/07 10:15:13;;;;;;;;;;;13.60;99.90;;;;;;5092112;28;19909;-69
2023/08/07 10:17:41;;;;;;;;;;;13.60;99.90;;;;;;5095155;28;19998;-71
2023/08/07 10:20:08;;;;;;;;;;;13.70;99.90;;;;;;5107056;28;19911;-70
2023/08/07 10:22:36;;;;;;;;;;;13.70;99.90;;;;;;5114139;28;19919;-71
2023/08/07 10:25:03;;;;;;;;;;;13.70;99.90;;;;;;5115431;28;19953;-72
2023/08/07 10:27:35;;;;;;;;;;;13.70;99.90;;;;;;5115519;28;20368;-69
2023/08/07 10:30:03;;;;;;;;;;;13.70;99.90;;;;;;5099813;28;20319;-68
2023/08/07 10:32:30;;;;;;;;;;;13.70;99.90;;;;;;5095103;28;19919;-69
2023/08/07 10:34:57;;;;;;;;;;;13.70;99.90;;;;;;5094992;28;19908;-70
2023/08/07 10:37:39;;;;;;;;;;;13.80;99.90;;;;;;5101974;28;19988;-69
2023/08/07 10:40:07;;;;;;;;;;;13.70;99.90;;;;;;5112673;28;19947;-70
2023/08/07 10:42:54;;;;;;;;;;;13.70;99.90;;;;;;5094698;28;20010;-70
2023/08/07 10:45:22;;;;;;;;;;;13.70;99.90;;;;;;5091118;28;19920;-68
2023/08/07 10:48:11;;;;;;;;;;;13.80;99.90;;;;;;5095327;28;19986;-70
2023/08/07 10:50:51;;;;;;;;;;;13.70;99.90;;;;;;5098786;28;19961;-71
2023/08/07 10:53:29;;;;;;;;;;;13.70;99.90;;;;;;5115288;28;19922;-68
2023/08/07 10:55:58;;;;;;;;;;;13.70;99.90;;;;;;5113195;28;19947;-67
2023/08/07 10:58:26;;;;;;;;;;;13.70;99.90;;;;;;5114929;28;19914;-71
2023/08/07 11:01:12;;;;;;;;;;;13.70;99.90;;;;;;5115182;28;19919;-68
2023/08/07 11:03:40;;;;;;;;;;;13.60;99.90;;;;;;5107357;28;19912;-70
2023/08/07 11:06:09;;;;;;;;;;;13.60;99.90;;;;;;5113749;28;19924;-69
2023/08/07 11:08:36;;;;;;;;;;;13.50;99.90;;;;;;5109729;28;19908;-68
2023/08/07 11:11:06;;;;;;;;;;;13.50;99.90;;;;;;5108538;28;19916;-69
2023/08/07 11:13:35;;;;;;;;;;;13.50;99.90;;;;;;5113428;28;19947;-68
2023/08/07 11:16:06;;;;;;;;;;;13.50;99.90;;;;;;5109742;28;19908;-69
2023/08/07 11:18:32;;;;;;;;;;;13.40;99.90;;;;;;5113194;28;19908;-68
2023/08/07 11:21:01;;;;;;;;;;;13.40;99.90;;;;;;5113925;28;19908;-67
2023/08/07 11:23:28;;;;;;;;;;;13.40;99.90;;;;;;5094591;28;19908;-68
2023/08/07 11:25:55;;;;;;;;;;;13.40;99.90;;;;;;5112384;28;19969;-70
2023/08/07 11:28:22;;;;;;;;;;;13.40;99.90;;;;;;5109527;28;20288;-71
2023/08/07 11:30:53;;;;;;;;;;;13.40;99.90;;;;;;5113283;28;19919;-71
2023/08/07 11:33:20;;;;;;;;;;;13.40;99.90;;;;;;5111689;28;19914;-69
2023/08/07 11:35:47;;;;;;;;;;;13.40;99.90;;;;;;5113388;28;19947;-66
2023/08/07 11:38:29;;;;;;;;;;;13.40;99.90;;;;;;5113021;28;19908;-68
2023/08/07 11:40:57;;;;;;;;;;;13.50;99.90;;;;;;5112498;28;20422;-70
2023/08/07 11:43:24;;;;;;;;;;;13.50;99.90;;;;;;5110070;28;19915;-69
2023/08/07 11:45:51;;;;;;;;;;;13.50;99.90;;;;;;5113159;28;19912;-70
2023/08/07 11:48:18;;;;;;;;;;;13.50;99.90;;;;;;5093756;28;20297;-71
2023/08/07 11:50:44;;;;;;;;;;;13.60;99.90;;;;;;5075015;28;19908;-71
2023/08/07 11:53:11;;;;;;;;;;;13.50;99.90;;;;;;5110595;28;19954;-69
2023/08/07 11:55:46;;;;;;;;;;;13.50;99.90;;;;;;5110806;28;19951;-71
2023/08/07 11:58:13;;;;;;;;;;;13.50;99.90;;;;;;5111068;28;19908;-69
2023/08/07 12:00:44;;;;;;;;;;;13.50;99.90;;;;;;5109221;28;19912;-69
2023/08/07 12:03:27;;;;;;;;;;;13.50;99.90;;;;;;5112737;28;20002;-70
2023/08/07 12:05:55;;;;;;;;;;;13.60;99.90;;;;;;5111584;28;20299;-69
2023/08/07 12:08:22;;;;;;;;;;;13.50;99.90;;;;;;5112499;28;19937;-69
2023/08/07 12:10:54;;;;;;;;;;;13.40;99.90;;;;;;5111610;28;19939;-70
2023/08/07 12:13:25;;;;;;;;;;;13.40;99.90;;;;;;5110519;28;20313;-70
2023/08/07 12:15:53;;;;;;;;;;;13.40;99.90;;;;;;5112489;28;19912;-69
2023/08/07 12:18:20;;;;;;;;;;;13.50;99.90;;;;;;5112997;28;19908;-70
2023/08/07 12:20:47;;;;;;;;;;;13.40;99.90;;;;;;5112729;28;19914;-69
2023/08/07 12:23:17;;;;;;;;;;;13.40;99.90;;;;;;5112934;28;19914;-70
2023/08/07 12:25:44;;;;;;;;;;;13.40;99.90;;;;;;5110896;28;20398;-68
2023/08/07 12:28:11;;;;;;;;;;;13.40;99.90;;;;;;5113623;28;20383;-69
2023/08/07 12:30:38;;;;;;;;;;;13.40;99.90;;;;;;5113093;28;20431;-69
2023/08/07 12:33:05;;;;;;;;;;;13.40;99.90;;;;;;5113456;28;19907;-69
2023/08/07 12:35:32;;;;;;;;;;;13.30;99.90;;;;;;5094998;28;20041;-69
2023/08/07 12:37:59;;;;;;;;;;;13.40;99.90;;;;;;5112672;28;19918;-68
2023/08/07 12:40:25;;;;;;;;;;;13.30;99.90;;;;;;5112960;28;19908;-67
2023/08/07 12:42:52;;;;;;;;;;;13.30;99.90;;;;;;5092979;28;19908;-67
2023/08/07 12:45:19;;;;;;;;;;;13.30;99.90;;;;;;5093027;28;19928;-68
2023/08/07 12:47:46;;;;;;;;;;;13.30;99.90;;;;;;5092940;28;19916;-67
2023/08/07 12:50:12;;;;;;;;;;;13.30;99.90;;;;;;5104190;28;19965;-68
2023/08/07 12:52:39;;;;;;;;;;;13.20;99.90;;;;;;5113066;28;20268;-68
2023/08/07 12:55:06;;;;;;;;;;;13.30;99.90;;;;;;5113232;28;20391;-68
2023/08/07 12:57:33;;;;;;;;;;;13.20;99.90;;;;;;5112685;28;19915;-68
2023/08/07 13:00:00;;;;;;;;;;;13.20;99.90;;;;;;5112885;28;20416;-68
2023/08/07 13:02:26;;;;;;;;;;;13.20;99.90;;;;;;5112883;28;19998;-69
2023/08/07 13:04:54;;;;;;;;;;;13.20;99.90;;;;;;5101139;28;19958;-69
2023/08/07 13:07:20;;;;;;;;;;;13.20;99.90;;;;;;5092862;28;20012;-67
2023/08/07 13:09:47;;;;;;;;;;;13.20;99.90;;;;;;5092687;28;19934;-67
2023/08/07 13:12:13;;;;;;;;;;;13.10;99.90;;;;;;5099399;28;20427;-70
2023/08/07 13:14:40;;;;;;;;;;;13.10;99.90;;;;;;5111951;28;19960;-70
2023/08/07 13:17:07;;;;;;;;;;;13.20;99.90;;;;;;5112383;28;20416;-68
2023/08/07 13:19:33;;;;;;;;;;;13.10;99.90;;;;;;5112992;28;19908;-67
2023/08/07 13:22:00;;;;;;;;;;;13.00;99.90;;;;;;5112684;28;19912;-68
2023/08/07 13:24:26;;;;;;;;;;;13.10;99.90;;;;;;5112869;28;19916;-67
2023/08/07 13:26:53;;;;;;;;;;;13.10;99.90;;;;;;5112580;28;20408;-68
2023/08/07 13:29:20;;;;;;;;;;;13.10;99.90;;;;;;5112801;28;19912;-68
2023/08/07 13:31:46;;;;;;;;;;;13.10;99.90;;;;;;5112067;28;21386;-69
2023/08/07 13:34:13;;;;;;;;;;;13.00;99.90;;;;;;5112524;28;19908;-69
2023/08/07 13:36:40;;;;;;;;;;;13.00;99.90;;;;;;5112271;28;19943;-68
2023/08/07 13:39:06;;;;;;;;;;;13.00;99.90;;;;;;5112314;28;19908;-70
2023/08/07 13:41:33;;;;;;;;;;;13.00;99.90;;;;;;5102720;28;20425;-70
2023/08/07 13:43:59;;;;;;;;;;;12.90;99.90;;;;;;5070347;28;19968;-69
2023/08/07 13:46:27;;;;;;;;;;;12.90;99.90;;;;;;5071890;28;19938;-69
2023/08/07 13:48:53;;;;;;;;;;;12.90;99.90;;;;;;5072462;28;19962;-69
2023/08/07 13:51:20;;;;;;;;;;;12.90;99.90;;;;;;5091775;28;19934;-70
2023/08/07 13:53:46;;;;;;;;;;;12.90;99.90;;;;;;5091222;28;19951;-69
2023/08/07 13:56:13;;;;;;;;;;;12.90;99.90;;;;;;5093723;28;19994;-70
2023/08/07 13:58:40;;;;;;;;;;;12.90;99.90;;;;;;5085797;28;20320;-69
2023/08/07 14:01:08;;;;;;;;;;;12.90;99.90;;;;;;5075877;28;19919;-70
2023/08/07 14:03:34;;;;;;;;;;;12.90;99.90;;;;;;5092954;28;20368;-68
2023/08/07 14:06:01;;;;;;;;;;;12.90;99.90;;;;;;5096209;28;19927;-69
2023/08/07 14:08:28;;;;;;;;;;;13.00;99.90;;;;;;5096033;28;20457;-68
2023/08/07 14:10:55;;;;;;;;;;;12.90;99.90;;;;;;5095662;28;19912;-69
2023/08/07 14:13:21;;;;;;;;;;;12.90;99.90;;;;;;5095435;28;19987;-69
2023/08/07 14:15:48;;;;;;;;;;;12.90;99.90;;;;;;5095542;28;19981;-68
2023/08/07 14:18:15;;;;;;;;;;;13.00;99.90;;;;;;5095759;28;20045;-69